Aviation Digital Data Service (ADDS)

Output produced by METARs form (1315 UTC 25 February 2018)
found at http://aviationweather.gov/adds/metars/
 
KBPT 251244Z 2513/2612 06008KT P6SM -RA FEW005 SCT016 OVC025 
     TEMPO 2513/2516 SHRA FEW026 OVC035 
     FM251600 07008KT P6SM -SHRA SCT025 OVC035 
     FM252200 05007KT 5SM -RA VCTS OVC022CB 
     FM260400 04005KT P6SM -RA VCTS OVC011CB